NCAR-RAP Real-Time Weather Data

Output produced by METARs form (17 July 2018  04:05 UTC)
found at http://weather.rap.ucar.edu/surface/
 
Conditions at: KFMY observed 17 July 2018  03:53 UTC
Temperature: 26.1°C (79°F)
Dewpoint: 24.4°C (76°F) [RH = 90%]
Pressure (altimeter): 30.09 inches Hg (1019.0 mb)
[Sea-level pressure: 1018.9 mb]
Winds: calm
Visibility: missing
Ceiling: at least 12,000 feet AGL
Clouds: sky clear below 12,000 feet AGL
Present Weather: automated observation with no human augmentation;
there may or may not be significant weather present at this time
KFMY 170353Z AUTO 00000KT CLR 26/24 A3009 RMK AO2 SLP189 T02610244

Conditions at: KFMY observed 17 July 2018  02:53 UTC
Temperature: 26.1°C (79°F)
Dewpoint: 25.0°C (77°F) [RH = 94%]
Pressure (altimeter): 30.08 inches Hg (1018.7 mb)
[Sea-level pressure: 1018.9 mb]
Winds: from the E (90 degrees) at 6 MPH (5 knots; 2.6 m/s)
Visibility: missing
Ceiling: at least 12,000 feet AGL
Clouds: few clouds at 3100 feet AGL
Present Weather: automated observation with no human augmentation;
there may or may not be significant weather present at this time
KFMY 170253Z AUTO 09005KT FEW031 26/25 A3008 RMK AO2 SLP189 T02610250 53011

Conditions at: KFMY observed 17 July 2018  01:53 UTC
Temperature: 27.2°C (81°F)
Dewpoint: 24.4°C (76°F) [RH = 85%]
Pressure (altimeter): 30.07 inches Hg (1018.4 mb)
[Sea-level pressure: 1018.5 mb]
Winds: calm
Visibility: 10 or more miles (16+ km)
Ceiling: at least 12,000 feet AGL
Clouds: few clouds at 4200 feet AGL
Present Weather: automated observation with no human augmentation;
there may or may not be significant weather present at this time
KFMY 170153Z AUTO 00000KT 10SM FEW042 27/24 A3007 RMK AO2 SLP185 T02720244

Conditions at: KFMY observed 17 July 2018  00:53 UTC
Temperature: 28.9°C (84°F)
Dewpoint: 23.9°C (75°F) [RH = 74%]
Pressure (altimeter): 30.05 inches Hg (1017.7 mb)
[Sea-level pressure: 1017.9 mb]
Winds: from the WNW (300 degrees) at 3 MPH (3 knots; 1.6 m/s)
Visibility: 10 or more miles (16+ km)
Ceiling: at least 12,000 feet AGL
Clouds: sky clear below 12,000 feet AGL
Present Weather: no significant weather observed at this time
KFMY 170053Z 30003KT 10SM CLR 29/24 A3005 RMK AO2 LTG DSNT N AND NW SLP179 T02890239

Conditions at: KFMY observed 17 July 2018  00:03 UTC
Temperature: 29.4°C (85°F)
Dewpoint: 23.9°C (75°F) [RH = 72%]
Pressure (altimeter): 30.05 inches Hg (1017.7 mb)
Winds: from the W (270 degrees) at 7 MPH (6 knots; 3.1 m/s)
Visibility: 10 or more miles (16+ km)
Ceiling: at least 12,000 feet AGL
Clouds: scattered clouds at 3400 feet AGL
Present Weather: no significant weather observed at this time
KFMY 170003Z 27006KT 10SM SCT034 29/24 A3005 RMK AO2 LTG DSNT N T02940239

Conditions at: KFMY observed 16 July 2018  23:53 UTC
Temperature: 29.4°C (85°F)
Dewpoint: 23.9°C (75°F) [RH = 72%]
Pressure (altimeter): 30.05 inches Hg (1017.7 mb)
[Sea-level pressure: 1017.8 mb]
Winds: from the W (260 degrees) at 6 MPH (5 knots; 2.6 m/s)
Visibility: 10 or more miles (16+ km)
Ceiling: at least 12,000 feet AGL
Clouds: scattered clouds at 3400 feet AGL
scattered clouds at 4200 feet AGL
Present Weather: VCTS  (thunderstorm in vicinity)
KFMY 162353Z 26005KT 10SM VCTS SCT034 SCT042 29/24 A3005 RMK AO2 LTG DSNT N AND NW SLP178 60001 T02940239 10339 20278 53005

Conditions at: KFMY observed 16 July 2018  23:12 UTC
Temperature: 29.4°C (85°F)
Dewpoint: 23.9°C (75°F) [RH = 72%]
Pressure (altimeter): 30.03 inches Hg (1017.0 mb)
Winds: from the W (260 degrees) at 9 MPH (8 knots; 4.2 m/s)
Visibility: 10 or more miles (16+ km)
Ceiling: at least 12,000 feet AGL
Clouds: sky clear below 12,000 feet AGL
Present Weather: VCTS  (thunderstorm in vicinity)
KFMY 162312Z 26008KT 10SM VCTS CLR 29/24 A3003 RMK AO2 LTG DSNT N T02940239

Conditions at: KFMY observed 16 July 2018  22:53 UTC
Temperature: 30.0°C (86°F)
Dewpoint: 23.9°C (75°F) [RH = 70%]
Pressure (altimeter): 30.03 inches Hg (1017.0 mb)
[Sea-level pressure: 1016.9 mb]
Winds: from the WSW (240 degrees) at 8 MPH (7 knots; 3.6 m/s)
Visibility: 10 or more miles (16+ km)
Ceiling: at least 12,000 feet AGL
Clouds: sky clear below 12,000 feet AGL
Present Weather: no significant weather observed at this time
KFMY 162253Z 24007KT 10SM CLR 30/24 A3003 RMK AO2 LTG DSNT N RAB2155E16 SLP169 P0000 T03000239

Conditions at: KFMY observed 16 July 2018  22:06 UTC
Temperature: 27.8°C (82°F)
Dewpoint: 25.0°C (77°F) [RH = 85%]
Pressure (altimeter): 30.02 inches Hg (1016.7 mb)
Winds: from the SSE (150 degrees) at 6 MPH (5 knots; 2.6 m/s)
Visibility: 8 miles (13 km)
Ceiling: 3200 feet AGL
Clouds: broken clouds at 3200 feet AGL
broken clouds at 4200 feet AGL
Present Weather: -RA  (light rain)
KFMY 162206Z 15005KT 8SM -RA BKN032 BKN042 28/25 A3002 RMK AO2 LTG DSNT N AND NE RAB2155 P0000 T02780250

Conditions at: KFMY observed 16 July 2018  21:53 UTC
Temperature: 28.3°C (83°F)
Dewpoint: 25.0°C (77°F) [RH = 82%]
Pressure (altimeter): 30.02 inches Hg (1016.7 mb)
[Sea-level pressure: 1016.8 mb]
Winds: from the SSE (160 degrees) at 7 MPH (6 knots; 3.1 m/s)
Visibility: 8 miles (13 km)
Ceiling: 4000 feet AGL
Clouds: scattered clouds at 3100 feet AGL
broken clouds at 4000 feet AGL
overcast cloud deck at 11000 feet AGL
Present Weather: VCTS  (thunderstorm in vicinity)
KFMY 162153Z 16006KT 8SM VCTS SCT031 BKN040 OVC110 28/25 A3002 RMK AO2 LTG DSNT NW-NE RAB32E47 TSB35E50 SLP168 P0000 T02830250

Conditions at: KFMY observed 16 July 2018  21:41 UTC
Temperature: 27.8°C (82°F)
Dewpoint: 25.0°C (77°F) [RH = 85%]
Pressure (altimeter): 30.03 inches Hg (1017.0 mb)
Winds: from the S (170 degrees) at 7 MPH (6 knots; 3.1 m/s)
Visibility: 8 miles (13 km)
Ceiling: 10000 feet AGL
Clouds: scattered clouds at 3400 feet AGL
scattered clouds at 5000 feet AGL
broken clouds at 10000 feet AGL
Present Weather: -TSRA  (light rain associated with thunderstorm(s))
KFMY 162141Z 17006KT 8SM -TSRA SCT034 SCT050 BKN100 28/25 A3003 RMK AO2 LTG DSNT N AND NE RAB32 TSB35 P0000 T02780250

Conditions at: KFMY observed 16 July 2018  21:24 UTC
Temperature: 30.0°C (86°F)
Dewpoint: 24.4°C (76°F) [RH = 72%]
Pressure (altimeter): 30.04 inches Hg (1017.4 mb)
Winds: variable direction winds at 7 MPH (6 knots; 3.1 m/s)
Visibility: 8 miles (13 km)
Ceiling: at least 12,000 feet AGL
Clouds: few clouds at 3500 feet AGL
few clouds at 4800 feet AGL
scattered clouds at 11000 feet AGL
Present Weather: no significant weather observed at this time
KFMY 162124Z VRB06KT 8SM FEW035 FEW048 SCT110 30/24 A3004 RMK AO2 LTG DSNT N-E T03000244

Conditions at: KFMY observed 16 July 2018  20:53 UTC
Temperature: 30.6°C (87°F)
Dewpoint: 23.9°C (75°F) [RH = 68%]
Pressure (altimeter): 30.04 inches Hg (1017.4 mb)
[Sea-level pressure: 1017.2 mb]
Winds: variable direction winds at 5 MPH (4 knots; 2.1 m/s)
Visibility: 8 miles (13 km)
Ceiling: at least 12,000 feet AGL
Clouds: sky clear below 12,000 feet AGL
Present Weather: VCTS  (thunderstorm in vicinity)
KFMY 162053Z VRB04KT 8SM VCTS CLR 31/24 A3004 RMK AO2 LTG DSNT NW-E RAE25 TSE16 SLP172 P0000 60001 T03060239 56009

Conditions at: KFMY observed 16 July 2018  20:22 UTC
Temperature: 30.0°C (86°F)
Dewpoint: 24.4°C (76°F) [RH = 72%]
Pressure (altimeter): 30.03 inches Hg (1017.0 mb)
Winds: from the NW (310 degrees) at 9 MPH (8 knots; 4.2 m/s)
Visibility: 8 miles (13 km)
Ceiling: 5000 feet AGL
Clouds: scattered clouds at 4100 feet AGL
broken clouds at 5000 feet AGL
broken clouds at 9500 feet AGL
Present Weather: VCTS -RA  (thunderstorm in vicinity, light rain)
KFMY 162022Z 31008KT 8SM VCTS -RA SCT041 BKN050 BKN095 30/24 A3003 RMK AO2 LTG DSNT E AND SE TSE16 PRESFR P0000 T03000244

Conditions at: KFMY observed 16 July 2018  19:53 UTC
Temperature: 28.3°C (83°F)
Dewpoint: 25.6°C (78°F) [RH = 85%]
Pressure (altimeter): 30.05 inches Hg (1017.7 mb)
[Sea-level pressure: 1017.9 mb]
Winds: from the ESE (120 degrees) at 7 MPH (6 knots; 3.1 m/s)
Visibility: 5 miles (8 km)
Ceiling: 4900 feet AGL
Clouds: scattered clouds at 3900 feet AGL
broken clouds at 4900 feet AGL
overcast cloud deck at 6500 feet AGL
Present Weather: -TSRA  (light rain associated with thunderstorm(s))
KFMY 161953Z 12006KT 5SM -TSRA SCT039 BKN049 OVC065 28/26 A3005 RMK AO2 LTG DSNT E AND SE RAB44 TSB28E43B45 SLP179 P0001 T02830256

Conditions at: KFMY observed 16 July 2018  19:34 UTC
Temperature: 32.2°C (90°F)
Dewpoint: 23.3°C (74°F) [RH = 59%]
Pressure (altimeter): 30.05 inches Hg (1017.7 mb)
Winds: from the W (260 degrees) at 12 MPH (10 knots; 5.2 m/s)
gusting to 21 MPH (18 knots; 9.4 m/s)
Visibility: 10 or more miles (16+ km)
Ceiling: 5500 feet AGL
Clouds: broken clouds at 5500 feet AGL
overcast cloud deck at 7500 feet AGL
Present Weather: TS  (thunderstorm)
KFMY 161934Z 26010G18KT 10SM TS BKN055 OVC075 32/23 A3005 RMK AO2 LTG DSNT E-S TSB28 T03220233

Conditions at: KFMY observed 16 July 2018  18:53 UTC
Temperature: 32.8°C (91°F)
Dewpoint: 23.3°C (74°F) [RH = 58%]
Pressure (altimeter): 30.04 inches Hg (1017.4 mb)
[Sea-level pressure: 1017.4 mb]
Winds: from the W (260 degrees) at 13 MPH (11 knots; 5.7 m/s)
Visibility: 10 or more miles (16+ km)
Ceiling: at least 12,000 feet AGL
Clouds: few clouds at 4700 feet AGL
scattered clouds at 7000 feet AGL
Present Weather: no significant weather observed at this time
KFMY 161853Z 26011KT 10SM FEW047 SCT070 33/23 A3004 RMK AO2 LTG DSNT SE SLP174 T03280233

Conditions at: KFMY observed 16 July 2018  17:53 UTC
Temperature: 32.2°C (90°F)
Dewpoint: 22.2°C (72°F) [RH = 56%]
Pressure (altimeter): 30.06 inches Hg (1018.0 mb)
[Sea-level pressure: 1018.2 mb]
Winds: from the W (260 degrees) at 7 MPH (6 knots; 3.1 m/s)
Visibility: 10 or more miles (16+ km)
Ceiling: at least 12,000 feet AGL
Clouds: scattered clouds at 4400 feet AGL
Present Weather: no significant weather observed at this time
KFMY 161753Z 26006KT 10SM SCT044 32/22 A3006 RMK AO2 SLP182 T03220222 10339 20261 58008

Conditions at: KFMY observed 16 July 2018  16:53 UTC
Temperature: 32.8°C (91°F)
Dewpoint: 22.2°C (72°F) [RH = 54%]
Pressure (altimeter): 30.08 inches Hg (1018.7 mb)
[Sea-level pressure: 1018.7 mb]
Winds: calm
Visibility: 10 or more miles (16+ km)
Ceiling: at least 12,000 feet AGL
Clouds: scattered clouds at 4500 feet AGL
Present Weather: no significant weather observed at this time
KFMY 161653Z 00000KT 10SM SCT045 33/22 A3008 RMK AO2 SLP187 T03280222

Conditions at: KFMY observed 16 July 2018  15:53 UTC
Temperature: 32.2°C (90°F)
Dewpoint: 21.1°C (70°F) [RH = 52%]
Pressure (altimeter): 30.09 inches Hg (1019.0 mb)
[Sea-level pressure: 1018.9 mb]
Winds: from the W (280 degrees) at 7 MPH (6 knots; 3.1 m/s)
Visibility: 10 or more miles (16+ km)
Ceiling: at least 12,000 feet AGL
Clouds: few clouds at 3200 feet AGL
Present Weather: no significant weather observed at this time
KFMY 161553Z 28006KT 10SM FEW032 32/21 A3009 RMK AO2 SLP189 T03220211

Conditions at: KFMY observed 16 July 2018  14:53 UTC
Temperature: 30.6°C (87°F)
Dewpoint: 22.2°C (72°F) [RH = 61%]
Pressure (altimeter): 30.09 inches Hg (1019.0 mb)
[Sea-level pressure: 1019.0 mb]
Winds: calm
Visibility: 10 or more miles (16+ km)
Ceiling: at least 12,000 feet AGL
Clouds: few clouds at 3200 feet AGL
Present Weather: no significant weather observed at this time
KFMY 161453Z 00000KT 10SM FEW032 31/22 A3009 RMK AO2 SLP190 T03060222 51010

Conditions at: KFMY observed 16 July 2018  13:53 UTC
Temperature: 29.4°C (85°F)
Dewpoint: 23.9°C (75°F) [RH = 72%]
Pressure (altimeter): 30.08 inches Hg (1018.7 mb)
[Sea-level pressure: 1018.9 mb]
Winds: calm
Visibility: 10 or more miles (16+ km)
Ceiling: at least 12,000 feet AGL
Clouds: sky clear below 12,000 feet AGL
Present Weather: no significant weather observed at this time
KFMY 161353Z 00000KT 10SM CLR 29/24 A3008 RMK AO2 SLP189 T02940239

Conditions at: KFMY observed 16 July 2018  12:53 UTC
Temperature: 27.8°C (82°F)
Dewpoint: 23.3°C (74°F) [RH = 77%]
Pressure (altimeter): 30.08 inches Hg (1018.7 mb)
[Sea-level pressure: 1018.7 mb]
Winds: variable direction winds at 3 MPH (3 knots; 1.6 m/s)
Visibility: 10 or more miles (16+ km)
Ceiling: at least 12,000 feet AGL
Clouds: sky clear below 12,000 feet AGL
Present Weather: no significant weather observed at this time
KFMY 161253Z VRB03KT 10SM CLR 28/23 A3008 RMK AO2 SLP187 T02780233

Conditions at: KFMY observed 16 July 2018  11:53 UTC
Temperature: 26.1°C (79°F)
Dewpoint: 23.3°C (74°F) [RH = 85%]
Pressure (altimeter): 30.06 inches Hg (1018.0 mb)
[Sea-level pressure: 1018.0 mb]
Winds: from the E (90 degrees) at 3 MPH (3 knots; 1.6 m/s)
Visibility: 10 or more miles (16+ km)
Ceiling: at least 12,000 feet AGL
Clouds: sky clear below 12,000 feet AGL
Present Weather: no significant weather observed at this time
KFMY 161153Z 09003KT 10SM CLR 26/23 A3006 RMK AO2 SLP180 70002 T02610233 10261 20244 52009

Conditions at: KFMY observed 16 July 2018  10:53 UTC
Temperature: 24.4°C (76°F)
Dewpoint: 23.3°C (74°F) [RH = 94%]
Pressure (altimeter): 30.05 inches Hg (1017.7 mb)
[Sea-level pressure: 1017.7 mb]
Winds: calm
Visibility: 10 or more miles (16+ km)
Ceiling: at least 12,000 feet AGL
Clouds: sky clear below 12,000 feet AGL
Present Weather: no significant weather observed at this time
KFMY 161053Z 00000KT 10SM CLR 24/23 A3005 RMK AO2 SLP177 T02440233

Conditions at: KFMY observed 16 July 2018  09:53 UTC
Temperature: 24.4°C (76°F)
Dewpoint: 23.3°C (74°F) [RH = 94%]
Pressure (altimeter): 30.04 inches Hg (1017.4 mb)
[Sea-level pressure: 1017.3 mb]
Winds: calm
Visibility: 10 or more miles (16+ km)
Ceiling: at least 12,000 feet AGL
Clouds: sky clear below 12,000 feet AGL
Present Weather: automated observation with no human augmentation;
there may or may not be significant weather present at this time
KFMY 160953Z AUTO 00000KT 10SM CLR 24/23 A3004 RMK AO2 LTG DSNT SW AND W SLP173 T02440233

Conditions at: KFMY observed 16 July 2018  08:53 UTC
Temperature: 25.0°C (77°F)
Dewpoint: 23.3°C (74°F) [RH = 90%]
Pressure (altimeter): 30.03 inches Hg (1017.0 mb)
[Sea-level pressure: 1017.1 mb]
Winds: calm
Visibility: 10 or more miles (16+ km)
Ceiling: at least 12,000 feet AGL
Clouds: sky clear below 12,000 feet AGL
Present Weather: automated observation with no human augmentation;
there may or may not be significant weather present at this time
KFMY 160853Z AUTO 00000KT 10SM CLR 25/23 A3003 RMK AO2 LTG DSNT SW AND W SLP171 T02500233 55007

Conditions at: KFMY observed 16 July 2018  07:53 UTC
Temperature: 25.0°C (77°F)
Dewpoint: 23.9°C (75°F) [RH = 94%]
Pressure (altimeter): 30.03 inches Hg (1017.0 mb)
[Sea-level pressure: 1017.0 mb]
Winds: from the NE (50 degrees) at 5 MPH (4 knots; 2.1 m/s)
Visibility: 10 or more miles (16+ km)
Ceiling: at least 12,000 feet AGL
Clouds: sky clear below 12,000 feet AGL
Present Weather: automated observation with no human augmentation;
there may or may not be significant weather present at this time
KFMY 160753Z AUTO 05004KT 10SM CLR 25/24 A3003 RMK AO2 SLP170 T02500239

Conditions at: KFMY observed 16 July 2018  06:53 UTC
Temperature: 25.0°C (77°F)
Dewpoint: 24.4°C (76°F) [RH = 96%]
Pressure (altimeter): 30.04 inches Hg (1017.4 mb)
[Sea-level pressure: 1017.3 mb]
Winds: from the E (100 degrees) at 5 MPH (4 knots; 2.1 m/s)
Visibility: 10 or more miles (16+ km)
Ceiling: at least 12,000 feet AGL
Clouds: sky clear below 12,000 feet AGL
Present Weather: automated observation with no human augmentation;
there may or may not be significant weather present at this time
KFMY 160653Z AUTO 10004KT 10SM CLR 25/24 A3004 RMK AO2 SLP173 T02500244

Conditions at: KFMY observed 16 July 2018  05:53 UTC
Temperature: 26.1°C (79°F)
Dewpoint: 24.4°C (76°F) [RH = 90%]
Pressure (altimeter): 30.05 inches Hg (1017.7 mb)
[Sea-level pressure: 1017.8 mb]
Winds: from the ENE (70 degrees) at 3 MPH (3 knots; 1.6 m/s)
Visibility: 10 or more miles (16+ km)
Ceiling: at least 12,000 feet AGL
Clouds: sky clear below 12,000 feet AGL
Present Weather: automated observation with no human augmentation;
there may or may not be significant weather present at this time
KFMY 160553Z AUTO 07003KT 10SM CLR 26/24 A3005 RMK AO2 SLP178 T02610244 10300 20261 50001

Conditions at: KFMY observed 16 July 2018  04:53 UTC
Temperature: 27.2°C (81°F)
Dewpoint: 25.0°C (77°F) [RH = 88%]
Pressure (altimeter): 30.06 inches Hg (1018.0 mb)
[Sea-level pressure: 1018.2 mb]
Winds: from the NE (50 degrees) at 5 MPH (4 knots; 2.1 m/s)
Visibility: 10 or more miles (16+ km)
Ceiling: at least 12,000 feet AGL
Clouds: sky clear below 12,000 feet AGL
Present Weather: automated observation with no human augmentation;
there may or may not be significant weather present at this time
KFMY 160453Z AUTO 05004KT 10SM CLR 27/25 A3006 RMK AO2 SLP182 T02720250 403390239

Conditions at: KFMY observed 16 July 2018  03:53 UTC
Temperature: 28.3°C (83°F)
Dewpoint: 23.9°C (75°F) [RH = 77%]
Pressure (altimeter): 30.06 inches Hg (1018.0 mb)
[Sea-level pressure: 1018.0 mb]
Winds: from the N (350 degrees) at 5 MPH (4 knots; 2.1 m/s)
Visibility: 10 or more miles (16+ km)
Ceiling: at least 12,000 feet AGL
Clouds: sky clear below 12,000 feet AGL
Present Weather: automated observation with no human augmentation;
there may or may not be significant weather present at this time
KFMY 160353Z AUTO 35004KT 10SM CLR 28/24 A3006 RMK AO2 SLP180 T02830239

Conditions at: KFMY observed 16 July 2018  02:53 UTC
Temperature: 28.9°C (84°F)
Dewpoint: 24.4°C (76°F) [RH = 77%]
Pressure (altimeter): 30.05 inches Hg (1017.7 mb)
[Sea-level pressure: 1017.7 mb]
Winds: calm
Visibility: 10 or more miles (16+ km)
Ceiling: at least 12,000 feet AGL
Clouds: few clouds at 4800 feet AGL
Present Weather: automated observation with no human augmentation;
there may or may not be significant weather present at this time
KFMY 160253Z AUTO 00000KT 10SM FEW048 29/24 A3005 RMK AO2 LTG DSNT N SLP177 T02890244 53015

Conditions at: KFMY observed 16 July 2018  01:53 UTC
Temperature: 28.9°C (84°F)
Dewpoint: 23.9°C (75°F) [RH = 74%]
Pressure (altimeter): 30.03 inches Hg (1017.0 mb)
[Sea-level pressure: 1017.1 mb]
Winds: calm
Visibility: 10 or more miles (16+ km)
Ceiling: at least 12,000 feet AGL
Clouds: scattered clouds at 5500 feet AGL
Present Weather: automated observation with no human augmentation;
there may or may not be significant weather present at this time
KFMY 160153Z AUTO 00000KT 10SM SCT055 29/24 A3003 RMK AO2 LTG DSNT N SLP171 T02890239

Conditions at: KFMY observed 16 July 2018  00:53 UTC
Temperature: 29.4°C (85°F)
Dewpoint: 23.9°C (75°F) [RH = 72%]
Pressure (altimeter): 30.02 inches Hg (1016.7 mb)
[Sea-level pressure: 1016.7 mb]
Winds: from the NW (310 degrees) at 6 MPH (5 knots; 2.6 m/s)
Visibility: 10 or more miles (16+ km)
Ceiling: at least 12,000 feet AGL
Clouds: sky clear below 12,000 feet AGL
Present Weather: no significant weather observed at this time
KFMY 160053Z 31005KT 10SM CLR 29/24 A3002 RMK AO2 SLP167 T02940239

Conditions at: KFMY observed 15 July 2018  23:53 UTC
Temperature: 30.0°C (86°F)
Dewpoint: 23.9°C (75°F) [RH = 70%]
Pressure (altimeter): 30.01 inches Hg (1016.3 mb)
[Sea-level pressure: 1016.2 mb]
Winds: from the W (270 degrees) at 5 MPH (4 knots; 2.1 m/s)
Visibility: 10 or more miles (16+ km)
Ceiling: 5500 feet AGL
Clouds: broken clouds at 5500 feet AGL
broken clouds at 10000 feet AGL
Present Weather: no significant weather observed at this time
KFMY 152353Z 27004KT 10SM BKN055 BKN100 30/24 A3001 RMK AO2 RAE01 SLP162 P0000 60002 T03000239 10339 20267 53003

Conditions at: KFMY observed 15 July 2018  22:53 UTC
Temperature: 28.9°C (84°F)
Dewpoint: 24.4°C (76°F) [RH = 77%]
Pressure (altimeter): 30.00 inches Hg (1016.0 mb)
[Sea-level pressure: 1016.0 mb]
Winds: calm
Visibility: 10 or more miles (16+ km)
Ceiling: 7000 feet AGL
Clouds: few clouds at 4600 feet AGL
broken clouds at 7000 feet AGL
overcast cloud deck at 8500 feet AGL
Present Weather: -RA  (light rain)
KFMY 152253Z 00000KT 10SM -RA FEW046 BKN070 OVC085 29/24 A3000 RMK AO2 LTG DSNT N RAB20 TSE2155B00E34 SLP160 P0002 T02890244

Conditions at: KFMY observed 15 July 2018  22:40 UTC
Temperature: 28.3°C (83°F)
Dewpoint: 23.9°C (75°F) [RH = 77%]
Pressure (altimeter): 30.00 inches Hg (1016.0 mb)
Winds: from the ESE (120 degrees) at 3 MPH (3 knots; 1.6 m/s)
Visibility: 10 or more miles (16+ km)
Ceiling: 7000 feet AGL
Clouds: few clouds at 4000 feet AGL
broken clouds at 7000 feet AGL
overcast cloud deck at 8500 feet AGL
Present Weather: -RA  (light rain)
KFMY 152240Z 12003KT 10SM -RA FEW040 BKN070 OVC085 28/24 A3000 RMK AO2 LTG DSNT N RAB20 TSE2155B00E34 P0002 T02830239

Conditions at: KFMY observed 15 July 2018  21:53 UTC
Temperature: 32.2°C (90°F)
Dewpoint: 22.8°C (73°F) [RH = 58%]
Pressure (altimeter): 30.00 inches Hg (1016.0 mb)
[Sea-level pressure: 1015.9 mb]
Winds: from the NW (310 degrees) at 10 MPH (9 knots; 4.7 m/s)
Visibility: 10 or more miles (16+ km)
Ceiling: 5000 feet AGL
Clouds: broken clouds at 5000 feet AGL
Present Weather: TS  (thunderstorm)
KFMY 152153Z 31009KT 10SM TS BKN050 32/23 A3000 RMK AO2 LTG DSNT N TSB40 SLP159 T03220228

Conditions at: KFMY observed 15 July 2018  21:46 UTC
Temperature: 32.2°C (90°F)
Dewpoint: 22.8°C (73°F) [RH = 58%]
Pressure (altimeter): 30.00 inches Hg (1016.0 mb)
Winds: from the WNW (290 degrees) at 9 MPH (8 knots; 4.2 m/s)
Visibility: 10 or more miles (16+ km)
Ceiling: 5000 feet AGL
Clouds: broken clouds at 5000 feet AGL
Present Weather: TS  (thunderstorm)
KFMY 152146Z 29008KT 10SM TS BKN050 32/23 A3000 RMK AO2 LTG DSNT N TSB40 T03220228

Conditions at: KFMY observed 15 July 2018  20:53 UTC
Temperature: 32.2°C (90°F)
Dewpoint: 23.3°C (74°F) [RH = 59%]
Pressure (altimeter): 30.00 inches Hg (1016.0 mb)
[Sea-level pressure: 1015.9 mb]
Winds: from the W (260 degrees) at 12 MPH (10 knots; 5.2 m/s)
Visibility: 10 or more miles (16+ km)
Ceiling: at least 12,000 feet AGL
Clouds: few clouds at 5000 feet AGL
few clouds at 6000 feet AGL
few clouds at 8000 feet AGL
Present Weather: no significant weather observed at this time
KFMY 152053Z 26010KT 10SM FEW050 FEW060 FEW080 32/23 A3000 RMK AO2 SLP159 T03220233 56021

Conditions at: KFMY observed 15 July 2018  19:53 UTC
Temperature: 33.3°C (92°F)
Dewpoint: 22.2°C (72°F) [RH = 52%]
Pressure (altimeter): 30.01 inches Hg (1016.3 mb)
[Sea-level pressure: 1016.4 mb]
Winds: from the WNW (290 degrees) at 7 MPH (6 knots; 3.1 m/s)
Visibility: 10 or more miles (16+ km)
Ceiling: at least 12,000 feet AGL
Clouds: few clouds at 5000 feet AGL
Present Weather: no significant weather observed at this time
KFMY 151953Z 29006KT 10SM FEW050 33/22 A3001 RMK AO2 SLP164 T03330222

Conditions at: KFMY observed 15 July 2018  18:53 UTC
Temperature: 32.8°C (91°F)
Dewpoint: 21.7°C (71°F) [RH = 52%]
Pressure (altimeter): 30.03 inches Hg (1017.0 mb)
[Sea-level pressure: 1017.2 mb]
Winds: from the WSW (250 degrees) at 6 MPH (5 knots; 2.6 m/s)
Visibility: 10 or more miles (16+ km)
Ceiling: at least 12,000 feet AGL
Clouds: scattered clouds at 5500 feet AGL
scattered clouds at 9500 feet AGL
Present Weather: no significant weather observed at this time
KFMY 151853Z 25005KT 10SM SCT055 SCT095 33/22 A3003 RMK AO2 SLP172 T03280217

Conditions at: KFMY observed 15 July 2018  17:53 UTC
Temperature: 33.3°C (92°F)
Dewpoint: 22.2°C (72°F) [RH = 52%]
Pressure (altimeter): 30.06 inches Hg (1018.0 mb)
[Sea-level pressure: 1018.0 mb]
Winds: from the NW (320 degrees) at 7 MPH (6 knots; 3.1 m/s)
Visibility: 10 or more miles (16+ km)
Ceiling: 5000 feet AGL
Clouds: broken clouds at 5000 feet AGL
Present Weather: no significant weather observed at this time
KFMY 151753Z 32006KT 10SM BKN050 33/22 A3006 RMK AO2 SLP180 T03330222 10333 20256 58004

Conditions at: KFMY observed 15 July 2018  16:53 UTC
Temperature: 31.1°C (88°F)
Dewpoint: 22.2°C (72°F) [RH = 59%]
Pressure (altimeter): 30.07 inches Hg (1018.4 mb)
[Sea-level pressure: 1018.6 mb]
Winds: from the SE (130 degrees) at 5 MPH (4 knots; 2.1 m/s)
Visibility: 10 or more miles (16+ km)
Ceiling: 4400 feet AGL
Clouds: overcast cloud deck at 4400 feet AGL
Present Weather: no significant weather observed at this time
KFMY 151653Z 13004KT 10SM OVC044 31/22 A3007 RMK AO2 SLP186 T03110222

Conditions at: KFMY observed 15 July 2018  15:53 UTC
Temperature: 31.7°C (89°F)
Dewpoint: 22.8°C (73°F) [RH = 59%]
Pressure (altimeter): 30.07 inches Hg (1018.4 mb)
[Sea-level pressure: 1018.5 mb]
Winds: from the WSW (250 degrees) at 7 MPH (6 knots; 3.1 m/s)
Visibility: 10 or more miles (16+ km)
Ceiling: at least 12,000 feet AGL
Clouds: few clouds at 4000 feet AGL
Present Weather: no significant weather observed at this time
KFMY 151553Z 25006KT 10SM FEW040 32/23 A3007 RMK AO2 SLP185 T03170228

Conditions at: KFMY observed 15 July 2018  14:53 UTC
Temperature: 31.1°C (88°F)
Dewpoint: 22.2°C (72°F) [RH = 59%]
Pressure (altimeter): 30.07 inches Hg (1018.4 mb)
[Sea-level pressure: 1018.4 mb]
Winds: calm
Visibility: 10 or more miles (16+ km)
Ceiling: at least 12,000 feet AGL
Clouds: sky clear below 12,000 feet AGL
Present Weather: no significant weather observed at this time
KFMY 151453Z 00000KT 10SM CLR 31/22 A3007 RMK AO2 SLP184 T03110222 51008

Conditions at: KFMY observed 15 July 2018  13:53 UTC
Temperature: 28.9°C (84°F)
Dewpoint: 23.9°C (75°F) [RH = 74%]
Pressure (altimeter): 30.06 inches Hg (1018.0 mb)
[Sea-level pressure: 1018.1 mb]
Winds: calm
Visibility: 10 or more miles (16+ km)
Ceiling: at least 12,000 feet AGL
Clouds: sky clear below 12,000 feet AGL
Present Weather: no significant weather observed at this time
KFMY 151353Z 00000KT 10SM CLR 29/24 A3006 RMK AO2 SLP181 T02890239

Conditions at: KFMY observed 15 July 2018  12:53 UTC
Temperature: 27.2°C (81°F)
Dewpoint: 23.9°C (75°F) [RH = 82%]
Pressure (altimeter): 30.07 inches Hg (1018.4 mb)
[Sea-level pressure: 1018.3 mb]
Winds: calm
Visibility: 10 or more miles (16+ km)
Ceiling: at least 12,000 feet AGL
Clouds: sky clear below 12,000 feet AGL
Present Weather: no significant weather observed at this time
KFMY 151253Z 00000KT 10SM CLR 27/24 A3007 RMK AO2 SLP183 T02720239

Conditions at: KFMY observed 15 July 2018  11:53 UTC
Temperature: 25.6°C (78°F)
Dewpoint: 23.9°C (75°F) [RH = 90%]
Pressure (altimeter): 30.05 inches Hg (1017.7 mb)
[Sea-level pressure: 1017.6 mb]
Winds: from the NE (50 degrees) at 3 MPH (3 knots; 1.6 m/s)
Visibility: 10 or more miles (16+ km)
Ceiling: at least 12,000 feet AGL
Clouds: sky clear below 12,000 feet AGL
Present Weather: no significant weather observed at this time
KFMY 151153Z 05003KT 10SM CLR 26/24 A3005 RMK AO2 SLP176 T02560239 10256 20239 53007

Conditions at: KFMY observed 15 July 2018  10:53 UTC
Temperature: 24.4°C (76°F)
Dewpoint: 23.9°C (75°F) [RH = 97%]
Pressure (altimeter): 30.04 inches Hg (1017.4 mb)
[Sea-level pressure: 1017.3 mb]
Winds: calm
Visibility: 10 or more miles (16+ km)
Ceiling: at least 12,000 feet AGL
Clouds: sky clear below 12,000 feet AGL
Present Weather: no significant weather observed at this time
KFMY 151053Z 00000KT 10SM CLR 24/24 A3004 RMK AO2 SLP173 T02440239

Conditions at: KFMY observed 15 July 2018  09:53 UTC
Temperature: 24.4°C (76°F)
Dewpoint: 23.3°C (74°F) [RH = 94%]
Pressure (altimeter): 30.03 inches Hg (1017.0 mb)
[Sea-level pressure: 1017.1 mb]
Winds: calm
Visibility: 10 or more miles (16+ km)
Ceiling: at least 12,000 feet AGL
Clouds: sky clear below 12,000 feet AGL
Present Weather: automated observation with no human augmentation;
there may or may not be significant weather present at this time
KFMY 150953Z AUTO 00000KT 10SM CLR 24/23 A3003 RMK AO2 SLP171 T02440233

Conditions at: KFMY observed 15 July 2018  08:53 UTC
Temperature: 24.4°C (76°F)
Dewpoint: 23.9°C (75°F) [RH = 97%]
Pressure (altimeter): 30.03 inches Hg (1017.0 mb)
[Sea-level pressure: 1016.9 mb]
Winds: calm
Visibility: 10 or more miles (16+ km)
Ceiling: at least 12,000 feet AGL
Clouds: sky clear below 12,000 feet AGL
Present Weather: automated observation with no human augmentation;
there may or may not be significant weather present at this time
KFMY 150853Z AUTO 00000KT 10SM CLR 24/24 A3003 RMK AO2 SLP169 T02440239 56009

Conditions at: KFMY observed 15 July 2018  07:53 UTC
Temperature: 24.4°C (76°F)
Dewpoint: 23.3°C (74°F) [RH = 94%]
Pressure (altimeter): 30.03 inches Hg (1017.0 mb)
[Sea-level pressure: 1016.9 mb]
Winds: calm
Visibility: 10 or more miles (16+ km)
Ceiling: at least 12,000 feet AGL
Clouds: sky clear below 12,000 feet AGL
Present Weather: automated observation with no human augmentation;
there may or may not be significant weather present at this time
KFMY 150753Z AUTO 00000KT 10SM CLR 24/23 A3003 RMK AO2 SLP169 T02440233

Conditions at: KFMY observed 15 July 2018  06:53 UTC
Temperature: 24.4°C (76°F)
Dewpoint: 23.3°C (74°F) [RH = 94%]
Pressure (altimeter): 30.04 inches Hg (1017.4 mb)
[Sea-level pressure: 1017.3 mb]
Winds: calm
Visibility: 10 or more miles (16+ km)
Ceiling: at least 12,000 feet AGL
Clouds: sky clear below 12,000 feet AGL
Present Weather: automated observation with no human augmentation;
there may or may not be significant weather present at this time
KFMY 150653Z AUTO 00000KT 10SM CLR 24/23 A3004 RMK AO2 SLP173 T02440233

Conditions at: KFMY observed 15 July 2018  05:53 UTC
Temperature: 25.0°C (77°F)
Dewpoint: 23.9°C (75°F) [RH = 94%]
Pressure (altimeter): 30.05 inches Hg (1017.7 mb)
[Sea-level pressure: 1017.9 mb]
Winds: from the E (80 degrees) at 5 MPH (4 knots; 2.1 m/s)
Visibility: 10 or more miles (16+ km)
Ceiling: at least 12,000 feet AGL
Clouds: sky clear below 12,000 feet AGL
Present Weather: automated observation with no human augmentation;
there may or may not be significant weather present at this time
KFMY 150553Z AUTO 08004KT 10SM CLR 25/24 A3005 RMK AO2 SLP179 T02500239 10283 20250 58005

Conditions at: KFMY observed 15 July 2018  04:53 UTC
Temperature: 25.6°C (78°F)
Dewpoint: 23.9°C (75°F) [RH = 90%]
Pressure (altimeter): 30.07 inches Hg (1018.4 mb)
[Sea-level pressure: 1018.4 mb]
Winds: from the ESE (110 degrees) at 3 MPH (3 knots; 1.6 m/s)
Visibility: 10 or more miles (16+ km)
Ceiling: at least 12,000 feet AGL
Clouds: sky clear below 12,000 feet AGL
Present Weather: automated observation with no human augmentation;
there may or may not be significant weather present at this time
KFMY 150453Z AUTO 11003KT 10SM CLR 26/24 A3007 RMK AO2 SLP184 T02560239 403330233